Baker, MT

9:22 PM MDT on March 28, 2015 (GMT -0600)
Baker Municipal | | Change Station
CLOSE
Current Station
Airport
Location: Baker,
Elevation: 2972 ft
Nearby Weather Stations

Elev 2972 ft 46.35 °N, 104.26 °W | Updated 31 minutes ago

Clear
Clear
45 °F
Feels Like 39 °F
N
13
Wind Variable Wind from WNW

Today
High -- | Low -- °F
--% Chance of Precip.
Yesterday
High -- | Low -- °F
Precip. -- in
6:44 AM 7:20 PM
Waxing Gibbous, 67% visible
Pressure 29.78 in
Visibility 10.0 miles
Clouds Clear
Windchill 39 °F
Dew Point 38 °F
Humidity 76%
Rainfall 0.01 in
Snow Depth Not available.
UV 0 out of 12
Pollen 3.90 out of 12
Air Quality Not available.
Flu Activity Not available.
METAR KBHK 290251Z AUTO 29011KT 10SM CLR 07/03 A2977 RMK AO2 SLP084 60000 T00720033 51026

More Conditions Fewer Conditions

Pressure 29.78 in
Visibility 10.0 miles
Clouds Clear
Windchill 39 °F
Dew Point 38 °F
Humidity 76%
Rainfall 0.01 in
Snow Depth Not available.
UV 0 out of 12
Pollen 3.90 out of 12
Air Quality Not available.
Flu Activity Not available.
METAR KBHK 290251Z AUTO 29011KT 10SM CLR 07/03 A2977 RMK AO2 SLP084 60000 T00720033 51026

More Conditions Fewer Conditions

10-Day Weather Forecast

Almanac

Astronomy

Mar. 28, 2015 Rise Set
Actual Time
Civil Twilight
Nautical Twilight
Astronomical Twilight
Moon
Length of Visible Light
Length of Day
Tomorrow will be .
, % of the Moon is Illuminated

Today's Extremes

State Highs State Lows

Community

WunderPhotos

Upload Photos

1,809,174 photos uploaded!

WunderBlogs® & News

Nearby

Air Quality

  Air Quality AQ Index Pollutant
Not available.

Snow Depth

Station Depth Elevation

Earthquake Activity

City Distance Mag. Time & Date
Minimum magnitude displayed is 2.5.

Coastal Water Temperatures

Place Temperature

Stations

Nearby Weather Stations

Station Location Temp. Windchill Dew Point Humidity Wind Precip. Elev Updated Type
                   
High Wind Warning
Statement as of 4:49 PM MDT on March 28, 2015

... High Wind Warning remains in effect until 3 am MDT Sunday...

* impacts... dangerous travel conditions for light weight and high
profile vehicles. Minor property damage could also occur.

* Timing... strong winds are spreading east with a cold front and
associated showers. The strongest winds will occur into the
early evening... but linger until after midnight.

* Winds... west winds 25 to 40 mph... with gusts to 60 mph likely.
Stronger gusts to near 70 mph possible near showers.



Http://weather.Gov/Billings